Valle Crucis, NC (28691)

7:30 AM EDT on August 31, 2014 (GMT -0400)
Valle Crucis | Change Station
CLOSE
Current Station
Personal Weather Station
Location: Valle Crucis, NC
Elevation: 3064 ft
Nearby Weather Stations

Elev 3064 ft 36.21 °N, 81.79 °W | Updated 2 seconds ago

Rain
Rain
65.4 °F
Feels Like 65.4 °F
N
0.0
Wind Variable Wind from East
Gusts 0.0 mph

Today
High -- | Low -- °F
--% Chance of Precip.
Yesterday
High -- | Low -- °F
Precip. -- in
6:57 AM 7:56 PM
Waxing Crescent, 30% visible
Pressure 30.29 in
Visibility 1.0 miles
Clouds Mostly Cloudy 300 ft
Mostly Cloudy 7500 ft
Overcast 9500 ft
Dew Point 65 °F
Humidity 98%
Rainfall 0.09 in
Snow Depth Not available.
UV 0 out of 12
Pollen 8.20 out of 12
Air Quality Not available.
Flu Activity Not available.
METAR KTNB 311115Z AUTO 00000KT 1SM RA BKN003 BKN075 OVC095 19/19 A3029 RMK AO2 T01850185

More Conditions Fewer Conditions

Pressure 30.29 in
Visibility 1.0 miles
Clouds Mostly Cloudy 300 ft
Mostly Cloudy 7500 ft
Overcast 9500 ft
Dew Point 65 °F
Humidity 98%
Rainfall 0.09 in
Snow Depth Not available.
UV 0 out of 12
Pollen 8.20 out of 12
Air Quality Not available.
Flu Activity Not available.
METAR KTNB 311115Z AUTO 00000KT 1SM RA BKN003 BKN075 OVC095 19/19 A3029 RMK AO2 T01850185

More Conditions Fewer Conditions

10-Day Weather Forecast

Almanac

Astronomy

Aug. 31, 2014 Rise Set
Actual Time 6:57 AM EDT 7:56 PM EDT
Civil Twilight 6:31 AM EDT 8:22 PM EDT
Nautical Twilight 6:00 AM EDT 8:53 PM EDT
Astronomical Twilight 5:28 AM EDT 9:25 PM EDT
Moon 12:32 PM EDT 11:21 PM EDT
Length of Visible Light 13h 50m
Length of Day
12h 58m
Tomorrow will be 2m 12s shorter.
Waxing Crescent, 30% of the Moon is Illuminated
Today
Waxing Crescent
Sep 2
First Quarter
Sep 8
Full
Sep 15
Last Quarter
Sep 24
New

Today's Extremes

State Highs State Lows

Community

WunderPhotos

Upload Photos

1,748,843 photos uploaded!

Nearby

Snow Depth

Station Depth Elevation
No new snow has been reported.

Earthquake Activity

City Distance Mag. Time & Date
No recent earthquake activity has been reported nearby.
Minimum magnitude displayed is 2.5.

Coastal Water Temperatures

Place Temperature
No Stations Reporting

Nearby Weather Stations